createdAt,value
2022-08-05T00:00:34.505Z,100404.28
2022-08-05T00:03:15.753Z,100425.38
2022-08-05T00:06:06.562Z,100451.88
2022-08-05T00:08:36.282Z,100453.78
2022-08-05T00:11:07.561Z,100446.75
2022-08-05T00:13:52.915Z,100453.63
2022-08-05T00:16:36.304Z,100450.00
2022-08-05T00:19:09.383Z,100442.88
2022-08-05T00:21:37.273Z,100427.16
2022-08-05T00:24:11.120Z,100407.03
2022-08-05T00:26:51.791Z,100390.31
2022-08-05T00:29:22.618Z,100369.34
2022-08-05T00:32:12.278Z,100348.25
2022-08-05T00:35:03.902Z,100359.78
2022-08-05T00:37:50.707Z,100359.03
2022-08-05T00:40:28.056Z,100371.47
2022-08-05T00:43:01.431Z,100372.13
2022-08-05T00:45:42.958Z,100373.97
2022-08-05T00:48:16.076Z,100367.03
2022-08-05T00:50:48.084Z,100373.22
2022-08-05T00:54:01.187Z,100388.91
2022-08-05T00:56:08.316Z,100399.53
2022-08-05T00:58:36.946Z,100417.25
2022-08-05T01:01:11.945Z,100425.44
2022-08-05T01:03:41.380Z,100445.75
2022-08-05T01:06:15.266Z,100456.25
2022-08-05T01:08:44.493Z,100455.47
2022-08-05T01:11:22.118Z,100449.31
2022-08-05T01:14:08.615Z,100450.16
2022-08-05T01:16:52.454Z,100459.78
2022-08-05T01:20:02.424Z,100464.19
2022-08-05T01:22:47.119Z,100451.94
2022-08-05T01:25:53.545Z,100449.22
2022-08-05T01:28:33.979Z,100445.78
2022-08-05T01:31:15.347Z,100449.25
2022-08-05T01:33:53.650Z,100463.28
2022-08-05T01:36:29.552Z,100464.13
2022-08-05T01:39:00.906Z,100465.00
2022-08-05T01:41:35.529Z,100465.03
2022-08-05T01:44:09.823Z,100462.38
2022-08-05T01:46:44.595Z,100462.44
2022-08-05T01:49:24.273Z,100467.69
2022-08-05T01:51:58.723Z,100475.56
2022-08-05T01:54:45.939Z,100461.53
2022-08-05T01:58:13.193Z,100449.31
2022-08-05T02:00:15.002Z,100454.59
2022-08-05T02:02:55.053Z,100458.09
2022-08-05T02:05:30.342Z,100467.75
2022-08-05T02:08:03.277Z,100473.88
2022-08-05T02:10:40.270Z,100453.75
2022-08-05T02:13:24.961Z,100466.88
2022-08-05T02:16:05.536Z,100467.75
2022-08-05T02:18:45.161Z,100459.88
2022-08-05T02:21:19.240Z,100458.13
2022-08-05T02:23:54.860Z,100457.25
2022-08-05T02:26:33.739Z,100462.50
2022-08-05T02:29:03.936Z,100455.44
2022-08-05T02:31:35.855Z,100462.56
2022-08-05T02:34:09.243Z,100473.03
2022-08-05T02:36:44.228Z,100468.63
2022-08-05T02:39:17.207Z,100475.69
2022-08-05T02:42:00.689Z,100490.56
2022-08-05T02:44:36.384Z,100485.28
2022-08-05T02:47:11.212Z,100482.66
2022-08-05T02:49:42.869Z,100483.47
2022-08-05T02:52:29.996Z,100488.69
2022-08-05T02:55:05.519Z,100489.44
2022-08-05T02:58:11.547Z,100487.66
2022-08-05T03:00:29.603Z,100492.88
2022-08-05T03:03:01.586Z,100491.94
2022-08-05T03:06:54.924Z,100494.59
2022-08-05T03:08:27.097Z,100499.84
2022-08-05T03:11:41.276Z,100505.06
2022-08-05T03:13:51.581Z,100499.84
2022-08-05T03:16:31.655Z,100490.09
2022-08-05T03:19:04.210Z,100495.25
2022-08-05T03:21:41.600Z,100506.72
2022-08-05T03:24:26.889Z,100498.88
2022-08-05T03:26:58.944Z,100506.72
2022-08-05T03:29:45.747Z,100509.50
2022-08-05T03:32:19.501Z,100519.16
2022-08-05T03:34:51.373Z,100512.06
2022-08-05T03:37:21.607Z,100519.97
2022-08-05T03:40:00.930Z,100506.00
2022-08-05T03:42:32.903Z,100501.63
2022-08-05T03:45:22.709Z,100487.69
2022-08-05T03:47:51.477Z,100476.28
2022-08-05T03:50:22.959Z,100455.28
2022-08-05T03:54:59.343Z,100444.84
2022-08-05T03:56:12.094Z,100431.72
2022-08-05T03:58:51.264Z,100417.69
2022-08-05T04:01:23.811Z,100417.72
2022-08-05T04:04:09.427Z,100421.34
2022-08-05T04:06:47.807Z,100354.81
2022-08-05T04:09:26.380Z,100328.78
2022-08-05T04:11:56.788Z,100386.59
2022-08-05T04:14:29.759Z,100423.47
2022-08-05T04:17:00.647Z,100427.03
2022-08-05T04:19:29.932Z,100439.28
2022-08-05T04:22:08.358Z,100461.13
2022-08-05T04:24:43.838Z,100470.78
2022-08-05T04:27:13.820Z,100469.09
2022-08-05T04:29:44.257Z,100468.22
2022-08-05T04:32:13.120Z,100455.19
2022-08-05T04:34:43.296Z,100456.06
2022-08-05T04:37:13.118Z,100471.84
2022-08-05T04:39:41.108Z,100477.97
2022-08-05T04:42:09.561Z,100485.78
2022-08-05T04:44:37.561Z,100491.91
2022-08-05T04:47:08.627Z,100492.72
2022-08-05T04:50:01.603Z,100486.53
2022-08-05T04:52:33.366Z,100486.56
2022-08-05T04:55:09.586Z,100491.78
2022-08-05T04:57:48.039Z,100492.66
2022-08-05T05:00:23.626Z,100505.81
2022-08-05T05:02:52.115Z,100485.66
2022-08-05T05:05:28.335Z,100486.50
2022-08-05T05:08:02.351Z,100485.59
2022-08-05T05:10:33.394Z,100489.03
2022-08-05T05:13:04.041Z,100485.53
2022-08-05T05:15:57.108Z,100488.97
2022-08-05T05:18:31.405Z,100486.31
2022-08-05T05:21:03.553Z,100473.97
2022-08-05T05:24:01.705Z,100470.50
2022-08-05T05:26:28.778Z,100481.03
2022-08-05T05:29:14.729Z,100497.63
2022-08-05T05:31:46.168Z,100497.63
2022-08-05T05:34:15.485Z,100485.44
2022-08-05T05:36:43.992Z,100483.63
2022-08-05T05:39:16.523Z,100480.91
2022-08-05T05:41:54.276Z,100475.63
2022-08-05T05:44:36.811Z,100492.25
2022-08-05T05:47:21.679Z,100501.88
2022-08-05T05:50:01.484Z,100502.75
2022-08-05T05:52:34.593Z,100505.34
2022-08-05T05:55:13.225Z,100517.59
2022-08-05T05:57:52.231Z,100528.13
2022-08-05T06:00:31.773Z,100543.91
2022-08-05T06:03:39.855Z,100558.78
2022-08-05T06:05:54.042Z,100537.84
2022-08-05T06:08:32.744Z,100531.75
2022-08-05T06:11:02.418Z,100519.50
2022-08-05T06:13:40.768Z,100517.78
2022-08-05T06:16:30.697Z,100510.78
2022-08-05T06:19:01.236Z,100500.13
2022-08-05T06:21:35.875Z,100510.59
2022-08-05T06:24:07.775Z,100508.84
2022-08-05T06:26:51.464Z,100510.53
2022-08-05T06:29:42.931Z,100508.81
2022-08-05T06:32:24.943Z,100510.66
2022-08-05T06:34:56.896Z,100532.56
2022-08-05T06:37:55.818Z,100542.25
2022-08-05T06:40:21.244Z,100536.03
2022-08-05T06:42:52.746Z,100534.38
2022-08-05T06:46:03.080Z,100532.75
2022-08-05T06:48:36.497Z,100538.94
2022-08-05T06:50:58.030Z,100523.09
2022-08-05T06:53:28.384Z,100520.44
2022-08-05T06:55:58.666Z,100523.97
2022-08-05T06:58:34.866Z,100523.06
2022-08-05T07:01:06.752Z,100526.69
2022-08-05T07:03:35.578Z,100534.53
2022-08-05T07:06:06.101Z,100542.41
2022-08-05T07:08:47.847Z,100541.53
2022-08-05T07:11:22.529Z,100547.63
2022-08-05T07:14:20.569Z,100558.19
2022-08-05T07:17:58.677Z,100561.66
2022-08-05T07:22:42.131Z,100567.78
2022-08-05T07:25:54.018Z,100578.34
2022-08-05T07:28:05.349Z,100593.28
2022-08-05T07:30:39.878Z,100617.81
2022-08-05T07:33:16.028Z,100631.84
2022-08-05T07:36:04.063Z,100632.66
2022-08-05T07:38:42.865Z,100615.94
2022-08-05T07:42:13.712Z,100600.13
2022-08-05T07:44:18.492Z,100590.50
2022-08-05T07:46:50.165Z,100586.06
2022-08-05T07:49:20.436Z,100596.50
2022-08-05T07:51:53.691Z,100583.34
2022-08-05T07:54:30.582Z,100593.84
2022-08-05T07:57:17.766Z,100587.66
2022-08-05T07:59:48.890Z,100585.06
2022-08-05T08:02:26.576Z,100603.44
2022-08-05T08:04:59.138Z,100624.50
2022-08-05T08:07:28.940Z,100635.09
2022-08-05T08:10:11.504Z,100643.91
2022-08-05T08:12:48.759Z,100647.38
2022-08-05T08:15:18.156Z,100629.91
2022-08-05T08:18:14.000Z,100621.16
2022-08-05T08:21:02.801Z,100624.66
2022-08-05T08:24:03.054Z,100612.56
2022-08-05T08:26:26.704Z,100616.06
2022-08-05T08:29:09.720Z,100616.09
2022-08-05T08:31:48.713Z,100627.47
2022-08-05T08:34:30.694Z,100628.31
2022-08-05T08:37:03.426Z,100646.66
2022-08-05T08:39:37.815Z,100657.16
2022-08-05T08:42:32.362Z,100658.88
2022-08-05T08:45:22.491Z,100644.03
2022-08-05T08:48:06.805Z,100652.75
2022-08-05T08:51:03.094Z,100655.38
2022-08-05T08:53:44.267Z,100654.47
2022-08-05T08:56:13.124Z,100645.72
2022-08-05T08:58:47.739Z,100637.81
2022-08-05T09:01:18.757Z,100652.69
2022-08-05T09:03:54.411Z,100657.91
2022-08-05T09:06:30.209Z,100653.50
2022-08-05T09:09:02.235Z,100664.00
2022-08-05T09:11:53.027Z,100673.69
2022-08-05T09:14:56.508Z,100677.19
2022-08-05T09:17:41.326Z,100682.47
2022-08-05T09:20:08.559Z,100680.69
2022-08-05T09:23:19.442Z,100676.25
2022-08-05T09:26:02.277Z,100689.34
2022-08-05T09:28:34.857Z,100688.44
2022-08-05T09:31:43.427Z,100687.47
2022-08-05T09:33:59.115Z,100684.88
2022-08-05T09:36:53.856Z,100688.34
2022-08-05T09:39:39.380Z,100699.69
2022-08-05T09:42:23.347Z,100697.75
2022-08-05T09:45:17.385Z,100698.56
2022-08-05T09:47:57.434Z,100708.16
2022-08-05T09:50:38.511Z,100702.78
2022-08-05T09:53:22.940Z,100706.22
2022-08-05T09:56:03.780Z,100700.94
2022-08-05T09:58:32.980Z,100713.25
2022-08-05T10:01:14.801Z,100722.97
2022-08-05T10:03:59.472Z,100736.34
2022-08-05T10:06:30.982Z,100737.25
2022-08-05T10:09:24.974Z,100734.53
2022-08-05T10:12:30.269Z,100750.19
2022-08-05T10:15:21.589Z,100739.00
2022-08-05T10:18:13.331Z,100748.47
2022-08-05T10:20:48.318Z,100742.09
2022-08-05T10:23:34.168Z,100736.66
2022-08-05T10:26:15.096Z,100751.56
2022-08-05T10:28:49.911Z,100742.56
2022-08-05T10:32:47.404Z,100738.19
2022-08-05T10:34:09.120Z,100738.06
2022-08-05T10:36:40.854Z,100736.53
2022-08-05T10:39:24.330Z,100744.44
2022-08-05T10:42:02.519Z,100745.72
2022-08-05T10:44:33.849Z,100751.81
2022-08-05T10:47:26.856Z,100767.41
2022-08-05T10:50:33.151Z,100768.09
2022-08-05T10:53:00.188Z,100772.31
2022-08-05T10:55:28.517Z,100767.19
2022-08-05T10:58:11.872Z,100772.16
2022-08-05T11:00:48.270Z,100780.22
2022-08-05T11:03:26.971Z,100784.75
2022-08-05T11:06:15.974Z,100782.06
2022-08-05T11:09:17.375Z,100781.78
2022-08-05T11:11:52.730Z,100783.34
2022-08-05T11:14:57.598Z,100784.97
2022-08-05T11:18:09.508Z,100786.72
2022-08-05T11:20:44.738Z,100789.19
2022-08-05T11:24:04.240Z,100789.88
2022-08-05T11:26:27.998Z,100786.06
2022-08-05T11:28:58.696Z,100790.72
2022-08-05T11:31:57.742Z,100797.56
2022-08-05T11:34:39.338Z,100790.59
2022-08-05T11:38:30.517Z,100786.66
2022-08-05T11:40:03.684Z,100774.94
2022-08-05T11:42:37.804Z,100781.00
2022-08-05T11:45:14.194Z,100775.44
2022-08-05T11:47:54.469Z,100786.47
2022-08-05T11:50:25.174Z,100795.34
2022-08-05T11:52:57.743Z,100794.28
2022-08-05T11:55:32.175Z,100802.41
2022-08-05T11:58:11.011Z,100802.84
2022-08-05T12:00:44.233Z,100804.13
2022-08-05T12:03:28.586Z,100806.72
2022-08-05T12:06:10.159Z,100804.47
2022-08-05T12:08:49.983Z,100796.69
2022-08-05T12:11:21.530Z,100804.69
2022-08-05T12:13:55.241Z,100810.44
2022-08-05T12:16:29.484Z,100805.94
2022-08-05T12:18:59.054Z,100808.56
2022-08-05T12:21:31.870Z,100801.97
2022-08-05T12:24:04.472Z,100798.69
2022-08-05T12:26:37.645Z,100799.75
2022-08-05T12:29:16.209Z,100797.94
2022-08-05T12:31:53.476Z,100800.97
2022-08-05T12:34:26.854Z,100807.81
2022-08-05T12:37:17.142Z,100802.88
2022-08-05T12:40:03.539Z,100808.16
2022-08-05T12:42:40.609Z,100798.28
2022-08-05T12:45:10.556Z,100810.97
2022-08-05T12:47:43.511Z,100821.59
2022-08-05T12:50:31.001Z,100819.84
2022-08-05T12:53:00.401Z,100839.84
2022-08-05T12:55:33.073Z,100836.13
2022-08-05T12:58:38.228Z,100847.13
2022-08-05T13:02:00.103Z,100840.00
2022-08-05T13:03:42.844Z,100845.44
2022-08-05T13:06:17.174Z,100843.16
2022-08-05T13:08:50.916Z,100833.06
2022-08-05T13:11:25.565Z,100827.91
2022-08-05T13:14:24.666Z,100832.81
2022-08-05T13:17:10.164Z,100833.81
2022-08-05T13:19:51.605Z,100835.03
2022-08-05T13:22:27.697Z,100845.81
2022-08-05T13:25:07.997Z,100842.75
2022-08-05T13:27:52.320Z,100851.28
2022-08-05T13:34:26.165Z,100863.69
2022-08-05T13:36:54.860Z,100858.88
2022-08-05T13:39:24.393Z,100853.75
2022-08-05T13:42:14.406Z,100859.44
2022-08-05T13:44:45.631Z,100856.91
2022-08-05T13:47:28.159Z,100851.69
2022-08-05T13:50:11.223Z,100857.34
2022-08-05T13:52:42.775Z,100862.63
2022-08-05T13:55:11.987Z,100871.56
2022-08-05T13:58:01.288Z,100878.19
2022-08-05T14:00:29.121Z,100879.47
2022-08-05T14:02:57.622Z,100883.91
2022-08-05T14:05:48.528Z,100871.47
2022-08-05T14:08:21.006Z,100883.19
2022-08-05T14:10:59.742Z,100877.13
2022-08-05T14:13:48.285Z,100876.22
2022-08-05T14:16:19.209Z,100881.66
2022-08-05T14:18:47.247Z,100873.31
2022-08-05T14:21:23.875Z,100882.72
2022-08-05T14:24:04.835Z,100876.19
2022-08-05T14:26:35.544Z,100890.78
2022-08-05T14:29:16.035Z,100903.41
2022-08-05T14:32:03.085Z,100900.78
2022-08-05T14:34:35.270Z,100907.13
2022-08-05T14:37:04.697Z,100909.22
2022-08-05T14:39:50.157Z,100916.34
2022-08-05T14:42:25.138Z,100904.31
2022-08-05T14:44:56.678Z,100890.47
2022-08-05T14:48:02.768Z,100911.47
2022-08-05T14:50:17.684Z,100904.78
2022-08-05T14:52:53.509Z,100925.06
2022-08-05T14:55:28.749Z,100935.03
2022-08-05T14:58:11.296Z,100923.34
2022-08-05T15:00:58.035Z,100928.28
2022-08-05T15:03:33.360Z,100938.72
2022-08-05T15:06:07.482Z,100936.22
2022-08-05T15:08:59.725Z,100935.09
2022-08-05T15:11:52.724Z,100951.53
2022-08-05T15:14:33.471Z,100941.34
2022-08-05T15:17:09.676Z,100951.00
2022-08-05T15:19:38.982Z,100951.09
2022-08-05T15:22:08.736Z,100952.66
2022-08-05T15:24:36.904Z,100946.19
2022-08-05T15:27:09.144Z,100951.81
2022-08-05T15:29:41.857Z,100954.69
2022-08-05T15:32:11.782Z,100971.00
2022-08-05T15:34:39.590Z,100964.13
2022-08-05T15:37:14.753Z,100965.91
2022-08-05T15:40:59.156Z,100961.44
2022-08-05T15:42:55.653Z,100959.56
2022-08-05T15:45:23.148Z,100963.13
2022-08-05T15:48:09.830Z,100964.41
2022-08-05T15:50:45.625Z,100969.47
2022-08-05T15:53:13.903Z,100966.22
2022-08-05T15:56:04.084Z,100967.84
2022-08-05T15:58:35.497Z,100981.03
2022-08-05T16:01:16.985Z,100965.50
2022-08-05T16:03:48.318Z,100973.81
2022-08-05T16:06:20.117Z,100982.16
2022-08-05T16:08:50.287Z,100973.34
2022-08-05T16:11:42.713Z,100982.94
2022-08-05T16:14:09.397Z,100986.91
2022-08-05T16:16:37.309Z,100985.66
2022-08-05T16:19:06.540Z,100982.75
2022-08-05T16:22:00.484Z,100991.88
2022-08-05T16:24:36.074Z,100998.50
2022-08-05T16:27:15.734Z,100990.25
2022-08-05T16:29:50.066Z,100997.19
2022-08-05T16:32:28.412Z,100998.72
2022-08-05T16:35:07.885Z,100993.56
2022-08-05T16:38:15.047Z,100999.91
2022-08-05T16:40:29.149Z,101000.22
2022-08-05T16:42:57.507Z,101003.72
2022-08-05T16:46:04.637Z,100998.34
2022-08-05T16:48:26.102Z,101005.53
2022-08-05T16:51:02.521Z,101006.31
2022-08-05T16:54:04.897Z,101011.00
2022-08-05T16:56:33.501Z,101016.38
2022-08-05T16:59:08.099Z,101017.69
2022-08-05T17:01:54.084Z,101016.75
2022-08-05T17:04:26.320Z,101013.19
2022-08-05T17:07:01.434Z,101021.44
2022-08-05T17:09:57.200Z,101023.38
2022-08-05T17:12:22.764Z,101018.66
2022-08-05T17:15:09.403Z,101031.59
2022-08-05T17:17:42.816Z,101035.31
2022-08-05T17:20:14.697Z,101030.25
2022-08-05T17:22:44.835Z,101044.06
2022-08-05T17:25:33.657Z,101047.59
2022-08-05T17:28:02.554Z,101043.16
2022-08-05T17:30:32.128Z,101051.34
2022-08-05T17:33:00.551Z,101058.78
2022-08-05T17:35:32.619Z,101053.66
2022-08-05T17:38:18.248Z,101053.66
2022-08-05T17:40:47.630Z,101063.34
2022-08-05T17:43:17.533Z,101067.88
2022-08-05T17:45:45.507Z,101068.06
2022-08-05T17:48:13.427Z,101070.31
2022-08-05T17:50:44.137Z,101076.66
2022-08-05T17:53:12.214Z,101075.75
2022-08-05T17:55:41.939Z,101082.13
2022-08-05T17:58:13.527Z,101089.56
2022-08-05T18:00:47.594Z,101080.13
2022-08-05T18:03:56.498Z,101086.28
2022-08-05T18:06:11.715Z,101092.59
2022-08-05T18:08:44.151Z,101100.75
2022-08-05T18:11:24.150Z,101106.91
2022-08-05T18:14:04.258Z,101111.25
2022-08-05T18:16:51.306Z,101110.59
2022-08-05T18:19:22.495Z,101113.19
2022-08-05T18:22:08.567Z,101114.97
2022-08-05T18:24:40.186Z,101118.69
2022-08-05T18:27:12.373Z,101126.59
2022-08-05T18:29:51.938Z,101133.66
2022-08-05T18:32:27.717Z,101144.19
2022-08-05T18:34:57.518Z,101144.22
2022-08-05T18:37:34.006Z,101144.22
2022-08-05T18:40:34.693Z,101146.91
2022-08-05T18:43:00.287Z,101153.09
2022-08-05T18:45:41.368Z,101151.38
2022-08-05T18:48:11.041Z,101153.13
2022-08-05T18:51:01.760Z,101154.88
2022-08-05T18:53:50.388Z,101156.66
2022-08-05T18:56:21.734Z,101156.66
2022-08-05T18:58:54.921Z,101163.72
2022-08-05T19:01:33.225Z,101158.47
2022-08-05T19:04:24.120Z,101169.00
2022-08-05T19:06:53.769Z,101163.72
2022-08-05T19:09:21.827Z,101165.47
2022-08-05T19:11:59.966Z,101170.75
2022-08-05T19:14:44.673Z,101179.50
2022-08-05T19:17:19.942Z,101182.13
2022-08-05T19:19:49.953Z,101196.16
2022-08-05T19:22:17.995Z,101191.75
2022-08-05T19:24:55.804Z,101193.50
2022-08-05T19:27:27.828Z,101200.50
2022-08-05T19:30:01.502Z,101209.19
2022-08-05T19:32:30.783Z,101205.66
2022-08-05T19:34:58.639Z,101209.16
2022-08-05T19:37:29.985Z,101212.59
2022-08-05T19:40:15.346Z,101226.59
2022-08-05T19:43:00.825Z,101232.69
2022-08-05T19:45:36.797Z,101234.50
2022-08-05T19:48:06.313Z,101235.31
2022-08-05T19:50:35.112Z,101245.81
2022-08-05T19:53:09.344Z,101243.06
2022-08-05T19:56:15.023Z,101259.72
2022-08-05T19:58:29.238Z,101254.50
2022-08-05T20:00:59.359Z,101254.50
2022-08-05T20:03:38.734Z,101260.56
2022-08-05T20:06:15.389Z,101261.38
2022-08-05T20:08:47.540Z,101267.50
2022-08-05T20:11:17.796Z,101272.72
2022-08-05T20:13:59.148Z,101274.44
2022-08-05T20:16:36.604Z,101284.09
2022-08-05T20:19:05.339Z,101279.69
2022-08-05T20:21:33.212Z,101290.16
2022-08-05T20:24:01.229Z,101287.44
2022-08-05T20:26:29.554Z,101295.25
2022-08-05T20:29:00.642Z,101299.56
2022-08-05T20:31:41.998Z,101301.09
2022-08-05T20:34:18.956Z,101303.59
2022-08-05T20:36:47.900Z,101306.28
2022-08-05T20:39:16.498Z,101314.94
2022-08-05T20:41:47.617Z,101314.88
2022-08-05T20:44:29.389Z,101310.53
2022-08-05T20:46:59.821Z,101320.06
2022-08-05T20:49:29.498Z,101325.13
2022-08-05T20:52:01.461Z,101329.47
2022-08-05T20:54:42.942Z,101341.63
2022-08-05T20:57:41.803Z,101330.22
2022-08-05T21:00:19.892Z,101341.31
2022-08-05T21:02:54.482Z,101341.34
2022-08-05T21:05:38.054Z,101335.25
2022-08-05T21:08:14.637Z,101337.91
2022-08-05T21:10:48.799Z,101342.41
2022-08-05T21:13:25.983Z,101341.41
2022-08-05T21:15:54.889Z,101349.97
2022-08-05T21:18:23.496Z,101348.28
2022-08-05T21:20:53.087Z,101346.22
2022-08-05T21:23:21.408Z,101343.59
2022-08-05T21:25:50.342Z,101349.75
2022-08-05T21:28:18.797Z,101348.88
2022-08-05T21:30:51.860Z,101360.19
2022-08-05T21:33:23.229Z,101364.47
2022-08-05T21:35:55.839Z,101364.31
2022-08-05T21:38:27.858Z,101359.06
2022-08-05T21:40:55.986Z,101368.50
2022-08-05T21:43:24.201Z,101374.38
2022-08-05T21:45:57.875Z,101372.59
2022-08-05T21:48:28.576Z,101368.91
2022-08-05T21:50:58.030Z,101370.53
2022-08-05T21:53:28.011Z,101374.75
2022-08-05T21:56:06.237Z,101375.03
2022-08-05T21:58:57.112Z,101375.91
2022-08-05T22:01:26.248Z,101374.94
2022-08-05T22:03:57.268Z,101375.66
2022-08-05T22:06:35.105Z,101380.72
2022-08-05T22:09:13.221Z,101373.47
2022-08-05T22:11:47.007Z,101377.66
2022-08-05T22:14:37.178Z,101380.31
2022-08-05T22:17:07.056Z,101375.13
2022-08-05T22:20:03.059Z,101388.97
2022-08-05T22:22:27.577Z,101390.50
2022-08-05T22:25:18.080Z,101385.28
2022-08-05T22:28:09.268Z,101389.63
2022-08-05T22:30:44.123Z,101402.75
2022-08-05T22:33:55.939Z,101394.09
2022-08-05T22:36:15.045Z,101396.75
2022-08-05T22:38:48.070Z,101403.38
2022-08-05T22:42:04.860Z,101409.28
2022-08-05T22:44:07.816Z,101410.06
2022-08-05T22:46:40.131Z,101407.19
2022-08-05T22:49:23.140Z,101405.22
2022-08-05T22:52:05.527Z,101414.72
2022-08-05T22:54:37.469Z,101416.53
2022-08-05T22:57:07.419Z,101417.31
2022-08-05T22:59:45.489Z,101419.00
2022-08-05T23:02:17.372Z,101424.09
2022-08-05T23:04:51.577Z,101427.31
2022-08-05T23:07:21.834Z,101422.22
2022-08-05T23:10:00.003Z,101419.50
2022-08-05T23:12:32.687Z,101425.63
2022-08-05T23:15:03.603Z,101427.31
2022-08-05T23:17:37.138Z,101432.59
2022-08-05T23:20:17.791Z,101427.16
2022-08-05T23:22:47.445Z,101428.00
2022-08-05T23:25:53.571Z,101424.44
2022-08-05T23:28:07.646Z,101432.22
2022-08-05T23:30:39.793Z,101432.31
2022-08-05T23:33:21.936Z,101437.38
2022-08-05T23:35:56.244Z,101446.84
2022-08-05T23:38:25.941Z,101445.97
2022-08-05T23:40:55.982Z,101440.84
2022-08-05T23:43:24.983Z,101451.28
2022-08-05T23:46:21.367Z,101449.25
2022-08-05T23:48:59.847Z,101451.53
2022-08-05T23:51:54.204Z,101449.78
2022-08-05T23:54:26.483Z,101459.41
2022-08-05T23:57:04.618Z,101459.09
